createdAt,value
2022-11-01T00:02:02.772Z,96.46
2022-11-01T00:04:31.138Z,96.08
2022-11-01T00:06:59.465Z,95.74
2022-11-01T00:09:27.798Z,96.41
2022-11-01T00:11:56.218Z,96.45
2022-11-01T00:14:24.486Z,96.22
2022-11-01T00:16:53.101Z,96.65
2022-11-01T00:19:22.804Z,96.82
2022-11-01T00:21:51.117Z,96.92
2022-11-01T00:24:19.398Z,96.95
2022-11-01T00:29:20.952Z,97.26
2022-11-01T00:31:49.434Z,97.16
2022-11-01T00:34:18.075Z,97.19
2022-11-01T00:36:47.800Z,96.74
2022-11-01T00:39:16.881Z,96.54
2022-11-01T00:41:45.198Z,96.48
2022-11-01T00:44:13.700Z,96.37
2022-11-01T00:46:42.059Z,96.73
2022-11-01T00:49:10.335Z,96.59
2022-11-01T00:51:38.586Z,96.50
2022-11-01T00:54:08.552Z,96.57
2022-11-01T00:56:36.879Z,96.29
2022-11-01T00:59:05.752Z,96.50
2022-11-01T01:01:35.949Z,96.27
2022-11-01T01:04:04.621Z,96.87
2022-11-01T01:06:32.979Z,96.83
2022-11-01T01:09:02.352Z,96.65
2022-11-01T01:11:31.983Z,96.34
2022-11-01T01:14:01.709Z,96.45
2022-11-01T01:16:30.192Z,96.53
2022-11-01T01:18:59.965Z,96.06
2022-11-01T01:21:28.253Z,96.17
2022-11-01T01:23:56.631Z,96.60
2022-11-01T01:26:24.936Z,96.48
2022-11-01T01:28:56.407Z,96.79
2022-11-01T01:31:24.738Z,96.55
2022-11-01T01:33:53.080Z,96.08
2022-11-01T01:36:21.413Z,95.53
2022-11-01T01:38:52.866Z,95.13
2022-11-01T01:41:53.239Z,94.89
2022-11-01T01:45:16.745Z,94.79
2022-11-01T01:47:53.176Z,95.86
2022-11-01T01:50:28.403Z,96.70
2022-11-01T01:53:03.542Z,97.89
2022-11-01T01:55:38.354Z,99.15
2022-11-01T01:58:08.533Z,99.79
2022-11-01T02:00:36.930Z,99.97
2022-11-01T02:03:08.451Z,98.57
2022-11-01T02:05:45.967Z,99.57
2022-11-01T02:08:15.904Z,98.51
2022-11-01T02:10:44.671Z,97.88
2022-11-01T02:13:15.019Z,97.29
2022-11-01T02:15:59.393Z,96.04
2022-11-01T02:18:37.257Z,95.65
2022-11-01T02:21:40.597Z,94.38
2022-11-01T02:24:52.137Z,93.08
2022-11-01T02:27:28.493Z,92.03
2022-11-01T02:30:13.384Z,91.21
2022-11-01T02:33:06.171Z,90.49
2022-11-01T02:35:50.672Z,89.55
2022-11-01T02:38:27.845Z,88.58
2022-11-01T02:41:04.897Z,87.56
2022-11-01T02:43:43.618Z,87.11
2022-11-01T02:46:30.392Z,84.91
2022-11-01T02:49:00.421Z,83.24
2022-11-01T02:51:31.294Z,82.47
2022-11-01T02:54:02.921Z,81.91
2022-11-01T02:56:32.324Z,81.15
2022-11-01T02:59:01.631Z,81.07
2022-11-01T03:01:34.403Z,81.30
2022-11-01T03:04:04.800Z,81.75
2022-11-01T03:06:38.960Z,82.18
2022-11-01T03:09:11.523Z,82.42
2022-11-01T03:11:52.274Z,80.96
2022-11-01T03:14:25.767Z,79.58
2022-11-01T03:17:01.216Z,79.04
2022-11-01T03:19:45.599Z,78.42
2022-11-01T03:22:18.460Z,78.68
2022-11-01T03:24:51.561Z,77.71
2022-11-01T03:27:27.537Z,77.89
2022-11-01T03:30:02.939Z,77.97
2022-11-01T03:32:37.788Z,78.25
2022-11-01T03:35:12.222Z,78.71
2022-11-01T03:37:43.245Z,79.05
2022-11-01T03:40:15.314Z,79.26
2022-11-01T03:42:49.728Z,79.04
2022-11-01T03:47:57.497Z,78.68
2022-11-01T03:50:29.741Z,79.29
2022-11-01T03:52:58.477Z,80.26
2022-11-01T03:55:27.353Z,79.21
2022-11-01T03:57:57.982Z,79.11
2022-11-01T04:00:29.345Z,79.25
2022-11-01T04:02:59.500Z,78.95
2022-11-01T04:05:31.386Z,78.93
2022-11-01T04:07:59.814Z,79.06
2022-11-01T04:10:30.125Z,77.64
2022-11-01T04:12:59.283Z,77.68
2022-11-01T04:15:46.591Z,77.89
2022-11-01T04:18:35.114Z,78.29
2022-11-01T04:21:07.840Z,78.08
2022-11-01T04:23:36.883Z,78.72
2022-11-01T04:26:07.436Z,78.77
2022-11-01T04:28:35.898Z,78.01
2022-11-01T04:31:04.348Z,77.52
2022-11-01T04:33:32.734Z,76.80
2022-11-01T04:36:08.039Z,76.22
2022-11-01T04:38:36.353Z,76.07
2022-11-01T04:41:04.625Z,76.35
2022-11-01T04:43:32.911Z,76.52
2022-11-01T04:46:01.185Z,76.13
2022-11-01T04:48:29.891Z,75.91
2022-11-01T04:50:58.178Z,75.85
2022-11-01T04:53:27.912Z,75.86
2022-11-01T04:55:56.388Z,76.05
2022-11-01T04:58:24.886Z,75.68
2022-11-01T05:00:53.162Z,75.87
2022-11-01T05:03:21.541Z,75.94
2022-11-01T05:05:49.838Z,75.57
2022-11-01T05:08:18.112Z,75.71
2022-11-01T05:10:47.663Z,75.22
2022-11-01T05:13:15.957Z,75.38
2022-11-01T05:16:06.246Z,75.31
2022-11-01T05:18:32.621Z,74.52
2022-11-01T05:21:00.915Z,74.19
2022-11-01T05:23:29.220Z,74.05
2022-11-01T05:25:59.738Z,73.93
2022-11-01T05:28:28.088Z,73.80
2022-11-01T05:30:56.357Z,73.06
2022-11-01T05:33:24.704Z,73.01
2022-11-01T05:35:53.073Z,73.18
2022-11-01T05:38:24.292Z,73.56
2022-11-01T05:40:52.573Z,73.27
2022-11-01T05:43:22.202Z,73.18
2022-11-01T05:45:51.299Z,73.04
2022-11-01T05:48:19.732Z,73.02
2022-11-01T05:50:48.544Z,72.44
2022-11-01T05:53:16.978Z,72.78
2022-11-01T05:55:45.354Z,72.23
2022-11-01T05:58:13.763Z,72.26
2022-11-01T06:00:43.522Z,71.94
2022-11-01T06:03:11.884Z,72.12
2022-11-01T06:05:40.598Z,71.86
2022-11-01T06:08:09.046Z,71.64
2022-11-01T06:10:37.258Z,71.63
2022-11-01T06:13:05.939Z,71.31
2022-11-01T06:15:37.227Z,71.26
2022-11-01T06:18:09.775Z,71.37
2022-11-01T06:20:38.754Z,71.37
2022-11-01T06:23:11.953Z,71.79
2022-11-01T06:25:40.368Z,71.48
2022-11-01T06:28:08.705Z,71.17
2022-11-01T06:30:38.930Z,71.28
2022-11-01T06:33:09.590Z,71.36
2022-11-01T06:35:38.348Z,71.68
2022-11-01T06:38:08.531Z,71.78
2022-11-01T06:40:37.385Z,72.18
2022-11-01T06:43:07.365Z,72.22
2022-11-01T06:45:35.757Z,72.18
2022-11-01T06:48:04.314Z,72.41
2022-11-01T06:50:34.777Z,72.67
2022-11-01T06:53:05.975Z,72.25
2022-11-01T06:55:34.299Z,72.34
2022-11-01T06:58:04.515Z,72.40
2022-11-01T07:00:33.764Z,72.61
2022-11-01T07:03:05.561Z,72.49
2022-11-01T07:05:38.530Z,72.35
2022-11-01T07:08:09.056Z,72.42
2022-11-01T07:10:38.639Z,72.57
2022-11-01T07:13:08.874Z,72.79
2022-11-01T07:15:37.429Z,72.81
2022-11-01T07:18:08.735Z,73.01
2022-11-01T07:20:42.469Z,72.73
2022-11-01T07:23:16.031Z,73.11
2022-11-01T07:25:45.004Z,73.25
2022-11-01T07:28:13.753Z,73.08
2022-11-01T07:30:42.165Z,73.16
2022-11-01T07:33:10.718Z,73.18
2022-11-01T07:35:40.453Z,72.83
2022-11-01T07:38:13.229Z,73.01
2022-11-01T07:40:42.749Z,73.09
2022-11-01T07:43:11.302Z,72.50
2022-11-01T07:45:39.674Z,72.61
2022-11-01T07:48:12.035Z,72.82
2022-11-01T07:50:46.017Z,72.52
2022-11-01T07:53:16.757Z,71.86
2022-11-01T07:55:45.818Z,71.61
2022-11-01T07:58:16.095Z,71.26
2022-11-01T08:00:45.868Z,70.89
2022-11-01T08:03:16.624Z,70.54
2022-11-01T08:05:47.103Z,69.95
2022-11-01T08:08:16.676Z,69.59
2022-11-01T08:10:45.239Z,69.19
2022-11-01T08:13:18.354Z,68.85
2022-11-01T08:15:47.230Z,68.98
2022-11-01T08:18:16.210Z,68.59
2022-11-01T08:20:45.958Z,68.43
2022-11-01T08:23:14.438Z,68.12
2022-11-01T08:25:44.748Z,68.15
2022-11-01T08:28:15.905Z,67.93
2022-11-01T08:30:46.561Z,67.89
2022-11-01T08:33:15.351Z,67.36
2022-11-01T08:35:50.400Z,67.46
2022-11-01T08:38:19.451Z,67.64
2022-11-01T08:40:48.015Z,67.38
2022-11-01T08:43:16.529Z,67.03
2022-11-01T08:45:45.098Z,67.50
2022-11-01T08:48:13.823Z,67.28
2022-11-01T08:50:42.277Z,67.34
2022-11-01T08:53:14.293Z,67.40
2022-11-01T08:55:43.287Z,67.27
2022-11-01T08:58:12.141Z,66.99
2022-11-01T09:00:40.499Z,66.32
2022-11-01T09:03:08.826Z,66.40
2022-11-01T09:05:37.349Z,66.14
2022-11-01T09:08:06.375Z,65.85
2022-11-01T09:10:36.375Z,65.57
2022-11-01T09:13:07.022Z,65.59
2022-11-01T09:15:35.689Z,65.25
2022-11-01T09:18:07.537Z,66.29
2022-11-01T09:20:37.898Z,65.91
2022-11-01T09:23:06.459Z,65.24
2022-11-01T09:25:36.973Z,65.60
2022-11-01T09:28:05.610Z,65.34
2022-11-01T09:30:33.887Z,64.93
2022-11-01T09:33:06.021Z,65.05
2022-11-01T09:35:34.882Z,65.57
2022-11-01T09:38:04.519Z,65.26
2022-11-01T09:40:45.455Z,64.93
2022-11-01T09:43:21.966Z,64.33
2022-11-01T09:45:52.710Z,64.02
2022-11-01T09:48:21.173Z,64.02
2022-11-01T09:50:49.504Z,64.28
2022-11-01T09:53:23.396Z,63.83
2022-11-01T09:56:02.025Z,63.95
2022-11-01T09:58:43.213Z,63.66
2022-11-01T10:01:34.918Z,64.15
2022-11-01T10:04:23.628Z,64.54
2022-11-01T10:07:00.445Z,64.76
2022-11-01T10:09:39.562Z,64.14
2022-11-01T10:12:26.145Z,64.27
2022-11-01T10:15:10.703Z,64.29
2022-11-01T10:17:52.335Z,63.81
2022-11-01T10:20:24.632Z,64.51
2022-11-01T10:22:52.987Z,63.86
2022-11-01T10:25:26.555Z,64.21
2022-11-01T10:28:06.921Z,63.50
2022-11-01T10:30:41.783Z,63.96
2022-11-01T10:33:29.114Z,64.42
2022-11-01T10:36:02.446Z,64.58
2022-11-01T10:39:04.578Z,64.26
2022-11-01T10:41:37.493Z,64.18
2022-11-01T10:44:15.289Z,64.02
2022-11-01T10:46:47.191Z,63.93
2022-11-01T10:49:24.570Z,63.35
2022-11-01T10:51:57.798Z,63.65
2022-11-01T10:54:30.171Z,63.11
2022-11-01T10:57:02.726Z,62.74
2022-11-01T10:59:40.081Z,63.29
2022-11-01T11:02:17.826Z,63.51
2022-11-01T11:04:46.553Z,63.05
2022-11-01T11:07:18.600Z,62.91
2022-11-01T11:09:51.253Z,63.42
2022-11-01T11:12:22.856Z,63.47
2022-11-01T11:14:57.903Z,63.09
2022-11-01T11:17:31.183Z,62.89
2022-11-01T11:20:04.903Z,63.13
2022-11-01T11:22:39.732Z,63.10
2022-11-01T11:25:15.579Z,62.47
2022-11-01T11:27:48.526Z,62.30
2022-11-01T11:30:29.857Z,62.14
2022-11-01T11:33:02.740Z,61.95
2022-11-01T11:35:33.678Z,62.22
2022-11-01T11:38:05.028Z,62.20
2022-11-01T11:40:45.626Z,61.94
2022-11-01T11:43:23.958Z,61.62
2022-11-01T11:46:08.855Z,62.00
2022-11-01T11:48:48.444Z,62.07
2022-11-01T11:51:17.781Z,62.52
2022-11-01T11:54:10.451Z,62.15
2022-11-01T11:56:38.955Z,61.96
2022-11-01T11:59:16.905Z,62.20
2022-11-01T12:01:48.532Z,61.79
2022-11-01T12:04:19.073Z,61.70
2022-11-01T12:06:49.901Z,61.95
2022-11-01T12:09:42.670Z,62.54
2022-11-01T12:12:20.059Z,62.51
2022-11-01T12:14:48.514Z,63.03
2022-11-01T12:17:41.399Z,63.02
2022-11-01T12:20:18.237Z,63.25
2022-11-01T12:22:51.760Z,62.23
2022-11-01T12:25:24.419Z,62.88
2022-11-01T12:28:01.248Z,63.67
2022-11-01T12:30:34.627Z,63.58
2022-11-01T12:35:47.485Z,62.20
2022-11-01T12:38:40.911Z,62.31
2022-11-01T12:41:25.707Z,62.49
2022-11-01T12:44:05.249Z,63.09
2022-11-01T12:46:40.635Z,62.76
2022-11-01T12:49:20.320Z,63.54
2022-11-01T12:51:54.548Z,63.03
2022-11-01T12:54:29.244Z,62.92
2022-11-01T12:56:58.423Z,62.65
2022-11-01T12:59:37.123Z,62.77
2022-11-01T13:02:27.831Z,61.77
2022-11-01T13:05:04.250Z,61.78
2022-11-01T13:07:47.824Z,61.60
2022-11-01T13:10:27.511Z,61.38
2022-11-01T13:13:05.708Z,62.04
2022-11-01T13:15:47.274Z,61.89
2022-11-01T13:18:22.924Z,61.00
2022-11-01T13:21:00.899Z,61.50
2022-11-01T13:23:37.122Z,61.21
2022-11-01T13:26:14.173Z,61.32
2022-11-01T13:28:58.427Z,61.36
2022-11-01T13:31:51.393Z,61.47
2022-11-01T13:34:34.168Z,60.85
2022-11-01T13:37:12.063Z,60.75
2022-11-01T13:39:55.296Z,60.79
2022-11-01T13:42:32.624Z,61.36
2022-11-01T13:45:23.734Z,61.26
2022-11-01T13:47:58.039Z,61.54
2022-11-01T13:50:56.501Z,61.89
2022-11-01T13:53:35.972Z,62.03
2022-11-01T13:56:09.644Z,62.51
2022-11-01T13:58:38.555Z,62.42
2022-11-01T14:01:32.108Z,62.89
2022-11-01T14:04:55.907Z,63.47
2022-11-01T14:07:24.428Z,63.00
2022-11-01T14:09:55.288Z,63.06
2022-11-01T14:12:43.327Z,63.81
2022-11-01T14:15:25.026Z,64.03
2022-11-01T14:18:04.523Z,63.88
2022-11-01T14:20:53.430Z,63.69
2022-11-01T14:24:02.536Z,63.51
2022-11-01T14:27:10.377Z,63.85
2022-11-01T14:29:38.860Z,63.93
2022-11-01T14:32:09.324Z,64.22
2022-11-01T14:34:41.641Z,65.00
2022-11-01T14:37:40.873Z,64.91
2022-11-01T14:40:30.560Z,64.38
2022-11-01T14:43:06.272Z,64.65
2022-11-01T14:45:38.437Z,64.41
2022-11-01T14:48:17.005Z,64.36
2022-11-01T14:50:56.978Z,64.46
2022-11-01T14:53:30.301Z,64.34
2022-11-01T14:56:15.465Z,64.51
2022-11-01T14:58:45.700Z,64.32
2022-11-01T15:01:17.375Z,64.82
2022-11-01T15:03:58.109Z,64.51
2022-11-01T15:06:29.007Z,64.32
2022-11-01T15:08:59.441Z,64.76
2022-11-01T15:11:29.438Z,64.87
2022-11-01T15:14:04.756Z,64.79
2022-11-01T15:16:36.654Z,64.99
2022-11-01T15:19:10.880Z,64.89
2022-11-01T15:21:46.943Z,65.66
2022-11-01T15:24:25.767Z,65.49
2022-11-01T15:26:54.864Z,65.92
2022-11-01T15:29:25.990Z,66.48
2022-11-01T15:32:00.636Z,66.83
2022-11-01T15:34:32.121Z,66.76
2022-11-01T15:37:11.609Z,66.54
2022-11-01T15:39:42.752Z,66.69
2022-11-01T15:42:20.288Z,67.02
2022-11-01T15:44:50.082Z,67.33
2022-11-01T15:47:22.639Z,67.34
2022-11-01T15:49:56.580Z,67.41
2022-11-01T15:52:30.293Z,67.61
2022-11-01T15:55:05.849Z,67.78
2022-11-01T15:57:39.429Z,67.84
2022-11-01T16:00:18.665Z,68.05
2022-11-01T16:02:52.628Z,68.21
2022-11-01T16:05:29.952Z,68.47
2022-11-01T16:07:59.007Z,68.29
2022-11-01T16:10:30.069Z,68.90
2022-11-01T16:13:00.463Z,68.70
2022-11-01T16:15:33.048Z,68.23
2022-11-01T16:18:03.443Z,68.59
2022-11-01T16:20:37.136Z,68.56
2022-11-01T16:23:07.158Z,68.81
2022-11-01T16:25:38.143Z,68.84
2022-11-01T16:28:33.010Z,68.85
2022-11-01T16:31:04.252Z,68.69
2022-11-01T16:33:45.329Z,68.75
2022-11-01T16:36:38.093Z,68.45
2022-11-01T16:39:29.379Z,69.03
2022-11-01T16:41:59.086Z,69.05
2022-11-01T16:44:27.896Z,68.86
2022-11-01T16:46:57.717Z,69.10
2022-11-01T16:49:29.075Z,69.21
2022-11-01T16:51:57.518Z,69.19
2022-11-01T16:54:26.261Z,69.19
2022-11-01T16:56:58.390Z,69.72
2022-11-01T16:59:39.007Z,70.86
2022-11-01T17:02:19.257Z,71.45
2022-11-01T17:04:51.620Z,71.41
2022-11-01T17:07:20.291Z,71.26
2022-11-01T17:09:48.678Z,71.36
2022-11-01T17:12:17.223Z,71.36
2022-11-01T17:14:46.494Z,70.73
2022-11-01T17:17:19.681Z,70.68
2022-11-01T17:19:54.540Z,70.73
2022-11-01T17:22:37.639Z,70.63
2022-11-01T17:25:08.053Z,70.16
2022-11-01T17:27:36.491Z,70.30
2022-11-01T17:30:05.738Z,70.15
2022-11-01T17:32:35.585Z,70.17
2022-11-01T17:35:04.042Z,70.35
2022-11-01T17:37:36.715Z,70.48
2022-11-01T17:40:15.876Z,70.28
2022-11-01T17:42:44.385Z,70.37
2022-11-01T17:45:13.425Z,70.54
2022-11-01T17:47:43.140Z,70.67
2022-11-01T17:50:15.246Z,70.65
2022-11-01T17:52:44.405Z,70.48
2022-11-01T17:55:13.810Z,70.71
2022-11-01T17:57:43.524Z,70.74
2022-11-01T18:00:13.316Z,71.00
2022-11-01T18:02:44.969Z,71.18
2022-11-01T18:05:14.297Z,71.66
2022-11-01T18:07:49.559Z,72.30
2022-11-01T18:10:20.673Z,72.56
2022-11-01T18:13:10.449Z,73.15
2022-11-01T18:15:45.363Z,73.53
2022-11-01T18:18:30.375Z,73.82
2022-11-01T18:21:13.476Z,73.94
2022-11-01T18:23:46.256Z,74.17
2022-11-01T18:26:21.479Z,74.57
2022-11-01T18:28:50.139Z,75.23
2022-11-01T18:31:25.181Z,75.56
2022-11-01T18:34:01.642Z,75.82
2022-11-01T18:36:35.168Z,75.78
2022-11-01T18:39:16.346Z,76.00
2022-11-01T18:41:47.123Z,75.96
2022-11-01T18:44:15.891Z,75.92
2022-11-01T18:46:53.323Z,75.79
2022-11-01T18:49:27.990Z,75.72
2022-11-01T18:51:57.148Z,75.92
2022-11-01T18:54:28.370Z,76.21
2022-11-01T18:56:59.122Z,76.82
2022-11-01T18:59:30.210Z,77.25
2022-11-01T19:02:01.795Z,77.56
2022-11-01T19:04:35.565Z,78.53
2022-11-01T19:07:12.469Z,79.87
2022-11-01T19:09:43.900Z,80.90
2022-11-01T19:12:16.328Z,82.57
2022-11-01T19:14:45.217Z,83.77
2022-11-01T19:17:20.453Z,84.47
2022-11-01T19:19:51.258Z,85.47
2022-11-01T19:22:38.145Z,85.58
2022-11-01T19:25:17.844Z,86.66
2022-11-01T19:27:46.306Z,87.86
2022-11-01T19:30:22.236Z,88.68
2022-11-01T19:32:51.222Z,89.68
2022-11-01T19:35:22.614Z,89.70
2022-11-01T19:37:52.010Z,90.19
2022-11-01T19:40:28.452Z,90.58
2022-11-01T19:42:58.892Z,90.39
2022-11-01T19:45:34.273Z,90.33
2022-11-01T19:48:04.801Z,90.36
2022-11-01T19:50:39.456Z,90.66
2022-11-01T19:53:17.929Z,90.37
2022-11-01T19:55:51.119Z,90.11
2022-11-01T19:58:25.910Z,89.95
2022-11-01T20:01:32.683Z,89.73
2022-11-01T20:04:02.499Z,89.07
2022-11-01T20:06:35.386Z,89.67
2022-11-01T20:09:06.821Z,90.07
2022-11-01T20:11:35.109Z,89.76
2022-11-01T20:14:03.598Z,89.27
2022-11-01T20:16:31.984Z,88.91
2022-11-01T20:19:00.529Z,88.28
2022-11-01T20:21:28.886Z,88.15
2022-11-01T20:23:59.529Z,87.90
2022-11-01T20:26:27.932Z,88.27
2022-11-01T20:28:56.150Z,87.59
2022-11-01T20:31:25.097Z,87.30
2022-11-01T20:33:53.414Z,86.29
2022-11-01T20:36:22.291Z,86.30
2022-11-01T20:38:50.618Z,85.99
2022-11-01T20:41:20.196Z,85.91
2022-11-01T20:43:48.871Z,85.35
2022-11-01T20:46:17.411Z,84.69
2022-11-01T20:48:46.270Z,84.17
2022-11-01T20:51:14.696Z,84.07
2022-11-01T20:53:42.874Z,83.35
2022-11-01T20:56:11.015Z,83.17
2022-11-01T20:58:40.916Z,83.21
2022-11-01T21:01:16.093Z,82.28
2022-11-01T21:03:44.532Z,82.63
2022-11-01T21:06:14.454Z,82.07
2022-11-01T21:08:45.002Z,82.22
2022-11-01T21:11:16.371Z,81.88
2022-11-01T21:13:46.856Z,81.88
2022-11-01T21:16:21.353Z,81.42
2022-11-01T21:18:52.349Z,81.28
2022-11-01T21:21:42.472Z,81.55
2022-11-01T21:24:31.735Z,81.74
2022-11-01T21:27:23.067Z,82.07
2022-11-01T21:29:53.315Z,82.29
2022-11-01T21:32:27.200Z,82.68
2022-11-01T21:34:55.414Z,83.27
2022-11-01T21:37:23.961Z,84.19
2022-11-01T21:39:58.944Z,84.81
2022-11-01T21:42:32.844Z,85.70
2022-11-01T21:45:16.884Z,86.29
2022-11-01T21:47:45.852Z,87.08
2022-11-01T21:50:14.199Z,88.12
2022-11-01T21:52:42.381Z,88.29
2022-11-01T21:55:10.650Z,88.99
2022-11-01T21:57:39.012Z,90.28
2022-11-01T22:00:10.628Z,90.35
2022-11-01T22:02:38.923Z,90.91
2022-11-01T22:05:07.871Z,90.76
2022-11-01T22:07:36.023Z,90.40
2022-11-01T22:10:04.792Z,90.74
2022-11-01T22:12:33.235Z,90.91
2022-11-01T22:15:01.374Z,91.03
2022-11-01T22:17:31.489Z,91.34
2022-11-01T22:19:59.736Z,91.46
2022-11-01T22:22:27.945Z,92.08
2022-11-01T22:24:56.271Z,92.19
2022-11-01T22:27:24.410Z,92.54
2022-11-01T22:29:52.542Z,92.49
2022-11-01T22:32:20.871Z,93.19
2022-11-01T22:34:50.483Z,93.21
2022-11-01T22:37:18.757Z,93.48
2022-11-01T22:39:52.896Z,93.62
2022-11-01T22:42:22.088Z,93.80
2022-11-01T22:44:50.608Z,94.02
2022-11-01T22:47:23.779Z,94.01
2022-11-01T22:49:54.647Z,93.86
2022-11-01T22:52:30.419Z,93.68
2022-11-01T22:55:02.878Z,93.58
2022-11-01T22:57:35.094Z,93.46
2022-11-01T23:00:27.189Z,92.95
2022-11-01T23:03:00.369Z,92.57
2022-11-01T23:05:30.083Z,91.92
2022-11-01T23:07:59.451Z,91.67
2022-11-01T23:10:30.242Z,91.17
2022-11-01T23:13:22.314Z,90.72
2022-11-01T23:15:52.392Z,90.13
2022-11-01T23:18:22.619Z,89.73
2022-11-01T23:20:55.688Z,89.28
2022-11-01T23:23:25.111Z,89.23
2022-11-01T23:25:54.624Z,89.80
2022-11-01T23:28:23.051Z,90.01
2022-11-01T23:30:51.767Z,90.35
2022-11-01T23:33:21.630Z,90.72
2022-11-01T23:35:53.634Z,91.76
2022-11-01T23:38:23.711Z,92.13
2022-11-01T23:40:53.986Z,92.88
2022-11-01T23:43:24.352Z,93.00
2022-11-01T23:45:53.397Z,93.06
2022-11-01T23:48:22.992Z,93.34
2022-11-01T23:50:54.031Z,93.27
2022-11-01T23:53:26.412Z,92.74
2022-11-01T23:55:55.565Z,92.56
2022-11-01T23:58:27.026Z,92.79
